sensor_id;sensor_type;location;lat;lon;timestamp;P1;durP1;ratioP1;P2;durP2;ratioP2
48871;SDS011;36154;51.674;7.824;2022-10-13T00:00:25;0.68;;;0.68;;
48871;SDS011;36154;51.674;7.824;2022-10-13T00:02:51;0.95;;;0.82;;
48871;SDS011;36154;51.674;7.824;2022-10-13T00:05:16;0.95;;;0.95;;
48871;SDS011;36154;51.674;7.824;2022-10-13T00:07:42;1.05;;;0.95;;
48871;SDS011;36154;51.674;7.824;2022-10-13T00:10:07;0.80;;;0.80;;
48871;SDS011;36154;51.674;7.824;2022-10-13T00:12:33;0.80;;;0.80;;
48871;SDS011;36154;51.674;7.824;2022-10-13T00:15:00;0.80;;;0.80;;
48871;SDS011;36154;51.674;7.824;2022-10-13T00:17:25;0.77;;;0.77;;
48871;SDS011;36154;51.674;7.824;2022-10-13T00:19:51;0.80;;;0.80;;
48871;SDS011;36154;51.674;7.824;2022-10-13T00:22:16;0.82;;;0.80;;
48871;SDS011;36154;51.674;7.824;2022-10-13T00:24:41;0.70;;;0.70;;
48871;SDS011;36154;51.674;7.824;2022-10-13T00:27:06;0.77;;;0.77;;
48871;SDS011;36154;51.674;7.824;2022-10-13T00:29:32;0.90;;;0.90;;
48871;SDS011;36154;51.674;7.824;2022-10-13T00:31:57;0.80;;;0.80;;
48871;SDS011;36154;51.674;7.824;2022-10-13T00:34:22;0.80;;;0.80;;
48871;SDS011;36154;51.674;7.824;2022-10-13T00:36:48;1.13;;;0.75;;
48871;SDS011;36154;51.674;7.824;2022-10-13T00:39:13;1.00;;;0.75;;
48871;SDS011;36154;51.674;7.824;2022-10-13T00:41:38;0.80;;;0.70;;
48871;SDS011;36154;51.674;7.824;2022-10-13T00:44:05;0.93;;;0.93;;
48871;SDS011;36154;51.674;7.824;2022-10-13T00:46:50;0.77;;;0.77;;
48871;SDS011;36154;51.674;7.824;2022-10-13T00:49:15;0.80;;;0.80;;
48871;SDS011;36154;51.674;7.824;2022-10-13T00:51:42;0.80;;;0.80;;
48871;SDS011;36154;51.674;7.824;2022-10-13T00:54:10;0.70;;;0.70;;
48871;SDS011;36154;51.674;7.824;2022-10-13T00:56:41;0.80;;;0.80;;
48871;SDS011;36154;51.674;7.824;2022-10-13T00:59:08;1.08;;;0.85;;
48871;SDS011;36154;51.674;7.824;2022-10-13T01:01:42;0.80;;;0.80;;
48871;SDS011;36154;51.674;7.824;2022-10-13T01:04:08;0.70;;;0.70;;
48871;SDS011;36154;51.674;7.824;2022-10-13T01:06:34;0.70;;;0.70;;
48871;SDS011;36154;51.674;7.824;2022-10-13T01:09:00;0.90;;;0.70;;
48871;SDS011;36154;51.674;7.824;2022-10-13T01:11:34;0.77;;;0.77;;
48871;SDS011;36154;51.674;7.824;2022-10-13T01:14:26;0.80;;;0.80;;
48871;SDS011;36154;51.674;7.824;2022-10-13T01:17:02;0.77;;;0.77;;
48871;SDS011;36154;51.674;7.824;2022-10-13T01:30:49;0.70;;;0.70;;
48871;SDS011;36154;51.674;7.824;2022-10-13T01:33:25;1.05;;;1.00;;
48871;SDS011;36154;51.674;7.824;2022-10-13T01:36:02;0.80;;;0.80;;
48871;SDS011;36154;51.674;7.824;2022-10-13T01:41:27;0.60;;;0.60;;
48871;SDS011;36154;51.674;7.824;2022-10-13T01:46:43;0.60;;;0.60;;
48871;SDS011;36154;51.674;7.824;2022-10-13T01:49:12;0.75;;;0.75;;
48871;SDS011;36154;51.674;7.824;2022-10-13T01:51:40;0.77;;;0.73;;
48871;SDS011;36154;51.674;7.824;2022-10-13T01:54:07;0.80;;;0.80;;
48871;SDS011;36154;51.674;7.824;2022-10-13T01:56:32;0.60;;;0.60;;
48871;SDS011;36154;51.674;7.824;2022-10-13T01:58:58;0.70;;;0.70;;
48871;SDS011;36154;51.674;7.824;2022-10-13T02:09:29;0.60;;;0.60;;
48871;SDS011;36154;51.674;7.824;2022-10-13T02:12:01;0.75;;;0.75;;
48871;SDS011;36154;51.674;7.824;2022-10-13T02:14:31;0.50;;;0.50;;
48871;SDS011;36154;51.674;7.824;2022-10-13T02:16:59;0.85;;;0.50;;
48871;SDS011;36154;51.674;7.824;2022-10-13T02:19:28;0.50;;;0.50;;
48871;SDS011;36154;51.674;7.824;2022-10-13T02:21:58;0.50;;;0.50;;
48871;SDS011;36154;51.674;7.824;2022-10-13T02:24:23;0.60;;;0.60;;
48871;SDS011;36154;51.674;7.824;2022-10-13T02:26:49;0.68;;;0.68;;
48871;SDS011;36154;51.674;7.824;2022-10-13T02:29:16;0.50;;;0.50;;
48871;SDS011;36154;51.674;7.824;2022-10-13T02:31:43;0.60;;;0.60;;
48871;SDS011;36154;51.674;7.824;2022-10-13T02:34:09;0.40;;;0.40;;
48871;SDS011;36154;51.674;7.824;2022-10-13T02:36:36;0.63;;;0.63;;
48871;SDS011;36154;51.674;7.824;2022-10-13T02:39:05;0.55;;;0.55;;
48871;SDS011;36154;51.674;7.824;2022-10-13T02:41:31;0.60;;;0.60;;
48871;SDS011;36154;51.674;7.824;2022-10-13T02:43:57;0.55;;;0.55;;
48871;SDS011;36154;51.674;7.824;2022-10-13T02:46:22;0.60;;;0.60;;
48871;SDS011;36154;51.674;7.824;2022-10-13T02:48:50;0.60;;;0.60;;
48871;SDS011;36154;51.674;7.824;2022-10-13T02:51:15;0.70;;;0.70;;
48871;SDS011;36154;51.674;7.824;2022-10-13T02:53:41;0.70;;;0.70;;
48871;SDS011;36154;51.674;7.824;2022-10-13T02:56:06;0.52;;;0.52;;
48871;SDS011;36154;51.674;7.824;2022-10-13T02:58:32;0.50;;;0.50;;
48871;SDS011;36154;51.674;7.824;2022-10-13T03:01:11;0.82;;;0.57;;
48871;SDS011;36154;51.674;7.824;2022-10-13T03:03:38;0.80;;;0.80;;
48871;SDS011;36154;51.674;7.824;2022-10-13T03:06:03;0.70;;;0.70;;
48871;SDS011;36154;51.674;7.824;2022-10-13T03:08:30;0.60;;;0.60;;
48871;SDS011;36154;51.674;7.824;2022-10-13T03:10:56;0.55;;;0.55;;
48871;SDS011;36154;51.674;7.824;2022-10-13T03:13:21;0.70;;;0.70;;
48871;SDS011;36154;51.674;7.824;2022-10-13T03:15:47;1.02;;;0.88;;
48871;SDS011;36154;51.674;7.824;2022-10-13T03:18:12;0.68;;;0.68;;
48871;SDS011;36154;51.674;7.824;2022-10-13T03:20:38;1.08;;;0.98;;
48871;SDS011;36154;51.674;7.824;2022-10-13T03:23:03;0.90;;;0.90;;
48871;SDS011;36154;51.674;7.824;2022-10-13T03:25:30;0.85;;;0.63;;
48871;SDS011;36154;51.674;7.824;2022-10-13T03:27:56;0.80;;;0.80;;
48871;SDS011;36154;51.674;7.824;2022-10-13T03:30:21;0.82;;;0.82;;
48871;SDS011;36154;51.674;7.824;2022-10-13T03:32:47;0.80;;;0.80;;
48871;SDS011;36154;51.674;7.824;2022-10-13T03:35:12;0.80;;;0.80;;
48871;SDS011;36154;51.674;7.824;2022-10-13T03:37:37;0.88;;;0.80;;
48871;SDS011;36154;51.674;7.824;2022-10-13T03:40:03;0.65;;;0.65;;
48871;SDS011;36154;51.674;7.824;2022-10-13T03:42:28;0.80;;;0.80;;
48871;SDS011;36154;51.674;7.824;2022-10-13T03:44:54;0.80;;;0.80;;
48871;SDS011;36154;51.674;7.824;2022-10-13T03:47:19;0.80;;;0.80;;
48871;SDS011;36154;51.674;7.824;2022-10-13T03:49:44;2.08;;;1.05;;
48871;SDS011;36154;51.674;7.824;2022-10-13T03:52:09;0.80;;;0.80;;
48871;SDS011;36154;51.674;7.824;2022-10-13T03:54:35;0.80;;;0.80;;
48871;SDS011;36154;51.674;7.824;2022-10-13T03:57:00;1.05;;;1.00;;
48871;SDS011;36154;51.674;7.824;2022-10-13T03:59:25;0.88;;;0.88;;
48871;SDS011;36154;51.674;7.824;2022-10-13T04:01:53;1.00;;;1.00;;
48871;SDS011;36154;51.674;7.824;2022-10-13T04:04:18;0.80;;;0.80;;
48871;SDS011;36154;51.674;7.824;2022-10-13T04:06:43;0.90;;;0.90;;
48871;SDS011;36154;51.674;7.824;2022-10-13T04:09:09;0.82;;;0.82;;
48871;SDS011;36154;51.674;7.824;2022-10-13T04:11:34;0.80;;;0.80;;
48871;SDS011;36154;51.674;7.824;2022-10-13T04:13:59;1.00;;;0.98;;
48871;SDS011;36154;51.674;7.824;2022-10-13T04:16:26;0.85;;;0.85;;
48871;SDS011;36154;51.674;7.824;2022-10-13T04:18:58;0.88;;;0.88;;
48871;SDS011;36154;51.674;7.824;2022-10-13T04:21:25;1.02;;;1.02;;
48871;SDS011;36154;51.674;7.824;2022-10-13T04:23:53;1.30;;;1.20;;
48871;SDS011;36154;51.674;7.824;2022-10-13T04:26:21;0.90;;;0.90;;
48871;SDS011;36154;51.674;7.824;2022-10-13T04:28:48;0.95;;;0.95;;
48871;SDS011;36154;51.674;7.824;2022-10-13T04:31:15;0.98;;;0.98;;
48871;SDS011;36154;51.674;7.824;2022-10-13T04:33:40;0.77;;;0.77;;
48871;SDS011;36154;51.674;7.824;2022-10-13T04:36:06;0.90;;;0.90;;
48871;SDS011;36154;51.674;7.824;2022-10-13T04:38:34;0.88;;;0.88;;
48871;SDS011;36154;51.674;7.824;2022-10-13T04:41:03;0.98;;;0.98;;
48871;SDS011;36154;51.674;7.824;2022-10-13T04:43:30;0.82;;;0.82;;
48871;SDS011;36154;51.674;7.824;2022-10-13T04:45:59;1.13;;;1.02;;
48871;SDS011;36154;51.674;7.824;2022-10-13T04:48:25;0.95;;;0.90;;
48871;SDS011;36154;51.674;7.824;2022-10-13T04:50:57;0.90;;;0.90;;
48871;SDS011;36154;51.674;7.824;2022-10-13T04:53:30;0.90;;;0.90;;
48871;SDS011;36154;51.674;7.824;2022-10-13T04:55:59;1.08;;;1.08;;
48871;SDS011;36154;51.674;7.824;2022-10-13T04:58:26;1.95;;;1.02;;
48871;SDS011;36154;51.674;7.824;2022-10-13T05:00:51;1.08;;;1.08;;
48871;SDS011;36154;51.674;7.824;2022-10-13T05:03:16;1.05;;;1.05;;
48871;SDS011;36154;51.674;7.824;2022-10-13T05:05:42;1.13;;;1.13;;
48871;SDS011;36154;51.674;7.824;2022-10-13T05:08:07;1.10;;;1.10;;
48871;SDS011;36154;51.674;7.824;2022-10-13T05:10:33;1.00;;;1.00;;
48871;SDS011;36154;51.674;7.824;2022-10-13T05:12:58;1.10;;;0.98;;
48871;SDS011;36154;51.674;7.824;2022-10-13T05:15:24;0.80;;;0.80;;
48871;SDS011;36154;51.674;7.824;2022-10-13T05:17:49;0.98;;;0.98;;
48871;SDS011;36154;51.674;7.824;2022-10-13T05:20:14;0.98;;;0.98;;
48871;SDS011;36154;51.674;7.824;2022-10-13T05:22:41;0.80;;;0.80;;
48871;SDS011;36154;51.674;7.824;2022-10-13T05:25:07;0.95;;;0.95;;
48871;SDS011;36154;51.674;7.824;2022-10-13T05:27:32;0.90;;;0.90;;
48871;SDS011;36154;51.674;7.824;2022-10-13T05:29:57;0.90;;;0.90;;
48871;SDS011;36154;51.674;7.824;2022-10-13T05:32:23;0.77;;;0.77;;
48871;SDS011;36154;51.674;7.824;2022-10-13T05:34:48;0.93;;;0.93;;
48871;SDS011;36154;51.674;7.824;2022-10-13T05:37:13;0.95;;;0.95;;
48871;SDS011;36154;51.674;7.824;2022-10-13T05:39:41;0.82;;;0.82;;
48871;SDS011;36154;51.674;7.824;2022-10-13T05:42:06;1.15;;;1.05;;
48871;SDS011;36154;51.674;7.824;2022-10-13T05:44:31;1.00;;;1.00;;
48871;SDS011;36154;51.674;7.824;2022-10-13T05:46:57;1.75;;;0.85;;
48871;SDS011;36154;51.674;7.824;2022-10-13T05:49:22;1.17;;;1.10;;
48871;SDS011;36154;51.674;7.824;2022-10-13T05:51:49;1.20;;;1.10;;
48871;SDS011;36154;51.674;7.824;2022-10-13T05:56:55;1.20;;;1.10;;
48871;SDS011;36154;51.674;7.824;2022-10-13T05:59:24;1.40;;;0.88;;
48871;SDS011;36154;51.674;7.824;2022-10-13T06:01:51;1.95;;;1.30;;
48871;SDS011;36154;51.674;7.824;2022-10-13T06:04:18;0.90;;;0.90;;
48871;SDS011;36154;51.674;7.824;2022-10-13T06:06:48;1.13;;;1.02;;
48871;SDS011;36154;51.674;7.824;2022-10-13T06:09:14;0.93;;;0.93;;
48871;SDS011;36154;51.674;7.824;2022-10-13T06:11:40;0.98;;;0.98;;
48871;SDS011;36154;51.674;7.824;2022-10-13T06:14:05;1.45;;;1.00;;
48871;SDS011;36154;51.674;7.824;2022-10-13T06:16:30;0.93;;;0.93;;
48871;SDS011;36154;51.674;7.824;2022-10-13T06:18:56;1.08;;;0.98;;
48871;SDS011;36154;51.674;7.824;2022-10-13T06:21:21;0.90;;;0.90;;
48871;SDS011;36154;51.674;7.824;2022-10-13T06:23:46;1.15;;;1.15;;
48871;SDS011;36154;51.674;7.824;2022-10-13T06:26:12;1.17;;;1.10;;
48871;SDS011;36154;51.674;7.824;2022-10-13T06:28:37;1.10;;;0.80;;
48871;SDS011;36154;51.674;7.824;2022-10-13T06:31:05;1.10;;;1.10;;
48871;SDS011;36154;51.674;7.824;2022-10-13T06:33:31;1.15;;;1.05;;
48871;SDS011;36154;51.674;7.824;2022-10-13T06:35:59;0.90;;;0.90;;
48871;SDS011;36154;51.674;7.824;2022-10-13T06:38:29;0.90;;;0.90;;
48871;SDS011;36154;51.674;7.824;2022-10-13T06:40:57;0.95;;;0.88;;
48871;SDS011;36154;51.674;7.824;2022-10-13T06:43:24;1.05;;;1.05;;
48871;SDS011;36154;51.674;7.824;2022-10-13T06:45:49;0.93;;;0.93;;
48871;SDS011;36154;51.674;7.824;2022-10-13T06:48:14;1.30;;;1.25;;
48871;SDS011;36154;51.674;7.824;2022-10-13T06:50:39;0.90;;;0.90;;
48871;SDS011;36154;51.674;7.824;2022-10-13T06:53:05;1.20;;;1.10;;
48871;SDS011;36154;51.674;7.824;2022-10-13T06:55:30;0.90;;;0.90;;
48871;SDS011;36154;51.674;7.824;2022-10-13T06:57:55;1.10;;;1.10;;
48871;SDS011;36154;51.674;7.824;2022-10-13T07:00:20;1.10;;;1.10;;
48871;SDS011;36154;51.674;7.824;2022-10-13T07:02:49;0.90;;;0.90;;
48871;SDS011;36154;51.674;7.824;2022-10-13T07:05:16;0.95;;;0.90;;
48871;SDS011;36154;51.674;7.824;2022-10-13T07:07:41;0.90;;;0.90;;
48871;SDS011;36154;51.674;7.824;2022-10-13T07:10:07;0.95;;;0.90;;
48871;SDS011;36154;51.674;7.824;2022-10-13T07:12:32;1.08;;;1.08;;
48871;SDS011;36154;51.674;7.824;2022-10-13T07:14:58;1.20;;;1.17;;
48871;SDS011;36154;51.674;7.824;2022-10-13T07:17:23;1.02;;;1.00;;
48871;SDS011;36154;51.674;7.824;2022-10-13T07:19:48;1.17;;;1.10;;
48871;SDS011;36154;51.674;7.824;2022-10-13T07:22:14;0.95;;;0.95;;
48871;SDS011;36154;51.674;7.824;2022-10-13T07:24:40;1.30;;;1.20;;
48871;SDS011;36154;51.674;7.824;2022-10-13T07:27:05;1.48;;;1.38;;
48871;SDS011;36154;51.674;7.824;2022-10-13T07:29:30;1.25;;;1.15;;
48871;SDS011;36154;51.674;7.824;2022-10-13T07:31:55;1.30;;;1.20;;
48871;SDS011;36154;51.674;7.824;2022-10-13T07:34:21;2.15;;;1.20;;
48871;SDS011;36154;51.674;7.824;2022-10-13T07:36:46;1.30;;;1.20;;
48871;SDS011;36154;51.674;7.824;2022-10-13T07:39:11;1.25;;;1.25;;
48871;SDS011;36154;51.674;7.824;2022-10-13T07:41:37;1.33;;;1.33;;
48871;SDS011;36154;51.674;7.824;2022-10-13T07:44:02;1.33;;;1.23;;
48871;SDS011;36154;51.674;7.824;2022-10-13T07:46:28;1.23;;;1.17;;
48871;SDS011;36154;51.674;7.824;2022-10-13T07:48:53;1.50;;;1.20;;
48871;SDS011;36154;51.674;7.824;2022-10-13T07:51:19;1.50;;;1.40;;
48871;SDS011;36154;51.674;7.824;2022-10-13T07:53:45;2.70;;;1.20;;
48871;SDS011;36154;51.674;7.824;2022-10-13T07:56:11;1.40;;;1.30;;
48871;SDS011;36154;51.674;7.824;2022-10-13T07:58:39;1.45;;;1.25;;
48871;SDS011;36154;51.674;7.824;2022-10-13T08:01:07;1.63;;;1.33;;
48871;SDS011;36154;51.674;7.824;2022-10-13T08:03:33;1.08;;;1.08;;
48871;SDS011;36154;51.674;7.824;2022-10-13T08:06:00;2.08;;;1.30;;
48871;SDS011;36154;51.674;7.824;2022-10-13T08:08:26;1.17;;;1.17;;
48871;SDS011;36154;51.674;7.824;2022-10-13T08:10:51;1.30;;;1.00;;
48871;SDS011;36154;51.674;7.824;2022-10-13T08:13:17;1.17;;;1.17;;
48871;SDS011;36154;51.674;7.824;2022-10-13T08:15:42;1.10;;;1.10;;
48871;SDS011;36154;51.674;7.824;2022-10-13T08:18:09;1.02;;;1.00;;
48871;SDS011;36154;51.674;7.824;2022-10-13T08:20:42;1.10;;;1.10;;
48871;SDS011;36154;51.674;7.824;2022-10-13T08:23:08;1.42;;;1.27;;
48871;SDS011;36154;51.674;7.824;2022-10-13T08:25:37;1.25;;;1.10;;
48871;SDS011;36154;51.674;7.824;2022-10-13T08:28:17;1.00;;;1.00;;
48871;SDS011;36154;51.674;7.824;2022-10-13T08:30:44;0.90;;;0.90;;
48871;SDS011;36154;51.674;7.824;2022-10-13T08:33:10;1.20;;;1.10;;
48871;SDS011;36154;51.674;7.824;2022-10-13T08:35:35;2.42;;;1.20;;
48871;SDS011;36154;51.674;7.824;2022-10-13T08:38:01;3.35;;;1.00;;
48871;SDS011;36154;51.674;7.824;2022-10-13T08:40:26;0.95;;;0.95;;
48871;SDS011;36154;51.674;7.824;2022-10-13T08:42:51;2.65;;;1.38;;
48871;SDS011;36154;51.674;7.824;2022-10-13T08:45:38;6.18;;;2.30;;
48871;SDS011;36154;51.674;7.824;2022-10-13T08:48:05;11.73;;;4.20;;
48871;SDS011;36154;51.674;7.824;2022-10-13T08:50:38;13.07;;;4.07;;
48871;SDS011;36154;51.674;7.824;2022-10-13T08:53:24;15.40;;;4.55;;
48871;SDS011;36154;51.674;7.824;2022-10-13T08:55:55;8.50;;;3.40;;
48871;SDS011;36154;51.674;7.824;2022-10-13T08:58:37;10.88;;;3.53;;
48871;SDS011;36154;51.674;7.824;2022-10-13T09:06:16;16.05;;;4.30;;
48871;SDS011;36154;51.674;7.824;2022-10-13T09:08:47;8.98;;;3.55;;
48871;SDS011;36154;51.674;7.824;2022-10-13T09:11:17;9.40;;;3.88;;
48871;SDS011;36154;51.674;7.824;2022-10-13T09:13:43;14.73;;;3.15;;
48871;SDS011;36154;51.674;7.824;2022-10-13T09:16:08;7.07;;;2.95;;
48871;SDS011;36154;51.674;7.824;2022-10-13T09:18:34;8.77;;;3.17;;
48871;SDS011;36154;51.674;7.824;2022-10-13T09:21:08;8.77;;;3.17;;
48871;SDS011;36154;51.674;7.824;2022-10-13T09:23:50;8.57;;;3.17;;
48871;SDS011;36154;51.674;7.824;2022-10-13T09:26:19;8.85;;;3.35;;
48871;SDS011;36154;51.674;7.824;2022-10-13T09:28:47;7.25;;;3.45;;
48871;SDS011;36154;51.674;7.824;2022-10-13T09:31:23;8.23;;;3.08;;
48871;SDS011;36154;51.674;7.824;2022-10-13T09:34:00;7.38;;;3.20;;
48871;SDS011;36154;51.674;7.824;2022-10-13T09:36:31;11.23;;;3.58;;
48871;SDS011;36154;51.674;7.824;2022-10-13T09:39:03;8.48;;;2.90;;
48871;SDS011;36154;51.674;7.824;2022-10-13T09:41:37;6.78;;;2.70;;
48871;SDS011;36154;51.674;7.824;2022-10-13T09:44:15;9.45;;;3.47;;
48871;SDS011;36154;51.674;7.824;2022-10-13T09:49:24;4.93;;;2.80;;
48871;SDS011;36154;51.674;7.824;2022-10-13T09:51:50;7.55;;;2.97;;
48871;SDS011;36154;51.674;7.824;2022-10-13T09:57:14;6.90;;;2.30;;
48871;SDS011;36154;51.674;7.824;2022-10-13T10:02:39;5.75;;;2.35;;
48871;SDS011;36154;51.674;7.824;2022-10-13T10:05:24;5.53;;;2.70;;
48871;SDS011;36154;51.674;7.824;2022-10-13T10:08:02;4.38;;;2.22;;
48871;SDS011;36154;51.674;7.824;2022-10-13T10:10:38;2.50;;;1.85;;
48871;SDS011;36154;51.674;7.824;2022-10-13T10:13:04;5.70;;;2.60;;
48871;SDS011;36154;51.674;7.824;2022-10-13T10:15:53;5.45;;;2.50;;
48871;SDS011;36154;51.674;7.824;2022-10-13T10:18:35;4.90;;;2.20;;
48871;SDS011;36154;51.674;7.824;2022-10-13T10:21:05;4.88;;;2.45;;
48871;SDS011;36154;51.674;7.824;2022-10-13T10:24:15;6.78;;;2.67;;
48871;SDS011;36154;51.674;7.824;2022-10-13T10:26:59;3.10;;;2.10;;
48871;SDS011;36154;51.674;7.824;2022-10-13T10:34:36;4.28;;;2.15;;
48871;SDS011;36154;51.674;7.824;2022-10-13T10:37:18;3.60;;;2.30;;
48871;SDS011;36154;51.674;7.824;2022-10-13T10:39:54;2.13;;;1.73;;
48871;SDS011;36154;51.674;7.824;2022-10-13T10:45:37;3.15;;;1.90;;
48871;SDS011;36154;51.674;7.824;2022-10-13T10:48:06;4.40;;;2.15;;
48871;SDS011;36154;51.674;7.824;2022-10-13T10:50:47;3.67;;;1.90;;
48871;SDS011;36154;51.674;7.824;2022-10-13T11:01:33;2.40;;;2.00;;
48871;SDS011;36154;51.674;7.824;2022-10-13T11:04:21;2.08;;;1.42;;
48871;SDS011;36154;51.674;7.824;2022-10-13T11:06:53;3.05;;;1.77;;
48871;SDS011;36154;51.674;7.824;2022-10-13T11:17:37;5.38;;;2.22;;
48871;SDS011;36154;51.674;7.824;2022-10-13T11:36:26;1.50;;;1.40;;
48871;SDS011;36154;51.674;7.824;2022-10-13T11:41:54;1.40;;;1.30;;
48871;SDS011;36154;51.674;7.824;2022-10-13T11:44:47;2.42;;;1.42;;
48871;SDS011;36154;51.674;7.824;2022-10-13T11:53:54;1.40;;;1.30;;
48871;SDS011;36154;51.674;7.824;2022-10-13T11:56:34;1.65;;;1.50;;
48871;SDS011;36154;51.674;7.824;2022-10-13T12:01:54;2.65;;;1.33;;
48871;SDS011;36154;51.674;7.824;2022-10-13T12:04:25;2.15;;;1.30;;
48871;SDS011;36154;51.674;7.824;2022-10-13T12:07:02;3.15;;;1.35;;
48871;SDS011;36154;51.674;7.824;2022-10-13T12:09:30;2.53;;;1.17;;
48871;SDS011;36154;51.674;7.824;2022-10-13T12:12:01;1.77;;;1.17;;
48871;SDS011;36154;51.674;7.824;2022-10-13T12:14:36;0.90;;;0.90;;
48871;SDS011;36154;51.674;7.824;2022-10-13T12:17:16;1.85;;;1.38;;
48871;SDS011;36154;51.674;7.824;2022-10-13T12:19:44;4.88;;;1.20;;
48871;SDS011;36154;51.674;7.824;2022-10-13T12:22:10;1.40;;;1.30;;
48871;SDS011;36154;51.674;7.824;2022-10-13T12:24:36;1.55;;;1.30;;
48871;SDS011;36154;51.674;7.824;2022-10-13T12:27:08;4.28;;;1.70;;
48871;SDS011;36154;51.674;7.824;2022-10-13T12:29:37;1.60;;;1.50;;
48871;SDS011;36154;51.674;7.824;2022-10-13T12:32:16;1.60;;;1.15;;
48871;SDS011;36154;51.674;7.824;2022-10-13T12:34:43;2.35;;;1.60;;
48871;SDS011;36154;51.674;7.824;2022-10-13T12:37:28;3.30;;;1.70;;
48871;SDS011;36154;51.674;7.824;2022-10-13T12:39:57;2.22;;;1.65;;
48871;SDS011;36154;51.674;7.824;2022-10-13T12:42:30;3.80;;;1.83;;
48871;SDS011;36154;51.674;7.824;2022-10-13T12:47:36;2.25;;;1.63;;
48871;SDS011;36154;51.674;7.824;2022-10-13T12:53:04;2.53;;;1.77;;
48871;SDS011;36154;51.674;7.824;2022-10-13T12:55:36;4.55;;;1.98;;
48871;SDS011;36154;51.674;7.824;2022-10-13T12:58:25;2.80;;;1.67;;
48871;SDS011;36154;51.674;7.824;2022-10-13T13:01:04;1.45;;;1.33;;
48871;SDS011;36154;51.674;7.824;2022-10-13T13:03:32;4.63;;;2.20;;
48871;SDS011;36154;51.674;7.824;2022-10-13T13:06:18;3.35;;;2.08;;
48871;SDS011;36154;51.674;7.824;2022-10-13T13:08:46;1.60;;;1.50;;
48871;SDS011;36154;51.674;7.824;2022-10-13T13:14:50;3.15;;;2.38;;
48871;SDS011;36154;51.674;7.824;2022-10-13T13:19:45;4.93;;;2.33;;
48871;SDS011;36154;51.674;7.824;2022-10-13T13:22:12;3.33;;;2.08;;
48871;SDS011;36154;51.674;7.824;2022-10-13T13:24:38;6.50;;;2.47;;
48871;SDS011;36154;51.674;7.824;2022-10-13T13:27:13;2.63;;;1.88;;
48871;SDS011;36154;51.674;7.824;2022-10-13T13:29:49;5.13;;;2.45;;
48871;SDS011;36154;51.674;7.824;2022-10-13T13:32:15;4.85;;;2.72;;
48871;SDS011;36154;51.674;7.824;2022-10-13T13:34:42;2.65;;;2.45;;
48871;SDS011;36154;51.674;7.824;2022-10-13T13:37:11;5.57;;;2.38;;
48871;SDS011;36154;51.674;7.824;2022-10-13T13:39:38;3.08;;;2.20;;
48871;SDS011;36154;51.674;7.824;2022-10-13T13:42:03;2.90;;;2.30;;
48871;SDS011;36154;51.674;7.824;2022-10-13T13:44:28;8.40;;;2.50;;
48871;SDS011;36154;51.674;7.824;2022-10-13T13:46:53;3.13;;;2.20;;
48871;SDS011;36154;51.674;7.824;2022-10-13T13:49:19;4.10;;;2.00;;
48871;SDS011;36154;51.674;7.824;2022-10-13T13:51:44;3.22;;;2.17;;
48871;SDS011;36154;51.674;7.824;2022-10-13T13:54:09;5.53;;;2.50;;
48871;SDS011;36154;51.674;7.824;2022-10-13T13:56:35;5.50;;;2.70;;
48871;SDS011;36154;51.674;7.824;2022-10-13T13:59:00;5.68;;;2.78;;
48871;SDS011;36154;51.674;7.824;2022-10-13T14:01:25;4.47;;;1.77;;
48871;SDS011;36154;51.674;7.824;2022-10-13T14:03:51;3.47;;;1.70;;
48871;SDS011;36154;51.674;7.824;2022-10-13T14:06:19;1.90;;;1.60;;
48871;SDS011;36154;51.674;7.824;2022-10-13T14:08:46;1.58;;;1.48;;
48871;SDS011;36154;51.674;7.824;2022-10-13T14:11:12;2.33;;;1.40;;
48871;SDS011;36154;51.674;7.824;2022-10-13T14:13:37;2.55;;;1.42;;
48871;SDS011;36154;51.674;7.824;2022-10-13T14:16:03;1.65;;;1.30;;
48871;SDS011;36154;51.674;7.824;2022-10-13T14:18:29;2.50;;;1.50;;
48871;SDS011;36154;51.674;7.824;2022-10-13T14:20:55;1.55;;;1.40;;
48871;SDS011;36154;51.674;7.824;2022-10-13T14:23:20;1.92;;;1.50;;
48871;SDS011;36154;51.674;7.824;2022-10-13T14:25:45;2.58;;;1.40;;
48871;SDS011;36154;51.674;7.824;2022-10-13T14:28:11;1.35;;;1.25;;
48871;SDS011;36154;51.674;7.824;2022-10-13T14:30:39;1.92;;;1.40;;
48871;SDS011;36154;51.674;7.824;2022-10-13T14:33:05;1.25;;;1.13;;
48871;SDS011;36154;51.674;7.824;2022-10-13T14:35:31;1.92;;;1.10;;
48871;SDS011;36154;51.674;7.824;2022-10-13T14:37:57;1.10;;;0.90;;
48871;SDS011;36154;51.674;7.824;2022-10-13T14:40:22;2.80;;;1.38;;
48871;SDS011;36154;51.674;7.824;2022-10-13T14:42:47;1.50;;;1.40;;
48871;SDS011;36154;51.674;7.824;2022-10-13T14:45:12;1.00;;;0.90;;
48871;SDS011;36154;51.674;7.824;2022-10-13T14:47:39;1.35;;;1.20;;
48871;SDS011;36154;51.674;7.824;2022-10-13T14:50:05;1.35;;;1.17;;
48871;SDS011;36154;51.674;7.824;2022-10-13T14:52:30;1.55;;;0.93;;
48871;SDS011;36154;51.674;7.824;2022-10-13T14:54:56;1.10;;;0.90;;
48871;SDS011;36154;51.674;7.824;2022-10-13T14:57:21;1.40;;;1.05;;
48871;SDS011;36154;51.674;7.824;2022-10-13T14:59:46;1.30;;;1.15;;
48871;SDS011;36154;51.674;7.824;2022-10-13T15:02:12;1.20;;;1.10;;
48871;SDS011;36154;51.674;7.824;2022-10-13T15:04:38;0.98;;;0.98;;
48871;SDS011;36154;51.674;7.824;2022-10-13T15:07:03;1.38;;;0.98;;
48871;SDS011;36154;51.674;7.824;2022-10-13T15:09:29;1.65;;;0.90;;
48871;SDS011;36154;51.674;7.824;2022-10-13T15:11:55;1.05;;;0.70;;
48871;SDS011;36154;51.674;7.824;2022-10-13T15:14:20;0.68;;;0.68;;
48871;SDS011;36154;51.674;7.824;2022-10-13T15:16:45;0.98;;;0.77;;
48871;SDS011;36154;51.674;7.824;2022-10-13T15:19:10;0.70;;;0.70;;
48871;SDS011;36154;51.674;7.824;2022-10-13T15:21:36;0.75;;;0.75;;
48871;SDS011;36154;51.674;7.824;2022-10-13T15:24:01;1.40;;;0.98;;
48871;SDS011;36154;51.674;7.824;2022-10-13T15:26:27;0.88;;;0.85;;
48871;SDS011;36154;51.674;7.824;2022-10-13T15:28:52;0.75;;;0.73;;
48871;SDS011;36154;51.674;7.824;2022-10-13T15:31:18;0.57;;;0.50;;
48871;SDS011;36154;51.674;7.824;2022-10-13T15:33:46;0.75;;;0.75;;
48871;SDS011;36154;51.674;7.824;2022-10-13T15:36:13;0.93;;;0.68;;
48871;SDS011;36154;51.674;7.824;2022-10-13T15:38:38;0.70;;;0.70;;
48871;SDS011;36154;51.674;7.824;2022-10-13T15:41:04;0.88;;;0.70;;
48871;SDS011;36154;51.674;7.824;2022-10-13T15:43:30;0.93;;;0.80;;
48871;SDS011;36154;51.674;7.824;2022-10-13T15:46:00;0.70;;;0.70;;
48871;SDS011;36154;51.674;7.824;2022-10-13T15:48:27;1.92;;;0.90;;
48871;SDS011;36154;51.674;7.824;2022-10-13T15:50:53;0.90;;;0.90;;
48871;SDS011;36154;51.674;7.824;2022-10-13T15:53:18;0.88;;;0.88;;
48871;SDS011;36154;51.674;7.824;2022-10-13T15:55:44;2.20;;;1.27;;
48871;SDS011;36154;51.674;7.824;2022-10-13T15:58:10;2.05;;;0.90;;
48871;SDS011;36154;51.674;7.824;2022-10-13T16:00:36;0.80;;;0.80;;
48871;SDS011;36154;51.674;7.824;2022-10-13T16:03:03;1.38;;;0.70;;
48871;SDS011;36154;51.674;7.824;2022-10-13T16:05:29;1.02;;;0.75;;
48871;SDS011;36154;51.674;7.824;2022-10-13T16:07:54;1.52;;;0.80;;
48871;SDS011;36154;51.674;7.824;2022-10-13T16:10:19;2.90;;;0.60;;
48871;SDS011;36154;51.674;7.824;2022-10-13T16:12:45;0.88;;;0.85;;
48871;SDS011;36154;51.674;7.824;2022-10-13T16:15:10;0.63;;;0.63;;
48871;SDS011;36154;51.674;7.824;2022-10-13T16:17:35;1.77;;;0.98;;
48871;SDS011;36154;51.674;7.824;2022-10-13T16:20:01;1.85;;;1.00;;
48871;SDS011;36154;51.674;7.824;2022-10-13T16:22:28;1.10;;;0.88;;
48871;SDS011;36154;51.674;7.824;2022-10-13T16:24:53;0.60;;;0.60;;
48871;SDS011;36154;51.674;7.824;2022-10-13T16:27:18;0.60;;;0.60;;
48871;SDS011;36154;51.674;7.824;2022-10-13T16:29:44;0.63;;;0.63;;
48871;SDS011;36154;51.674;7.824;2022-10-13T16:32:09;0.80;;;0.70;;
48871;SDS011;36154;51.674;7.824;2022-10-13T16:34:35;1.15;;;0.70;;
48871;SDS011;36154;51.674;7.824;2022-10-13T16:37:00;0.50;;;0.50;;
48871;SDS011;36154;51.674;7.824;2022-10-13T16:39:25;0.70;;;0.70;;